Aeroporto :
LOGIN :

Iscrizione | Disclaimer

   EN    FR    IT 

 










Sommario :    VFR   VFR Marginale   IFR   IFR Intensivo   IFR Molto Intensivo
Visibilità : 
Base nubi : 
>= 8 km
>= 3000ft
5 / 8 km
1000 / 3000 ft
1500m / 5 km
500 / 1000 ft
800 / 1500m
200 / 500 ft
< 800m
< 200 ft
Simboli :   Temporali  Nebbia  Neve Forte  Precipitazioni Forti  Vento > 20 kt
SIGMETs :   Varie  Temporali  Ghiacco  Turbolenza  Onda orograficha  Ceneri Vulcaniche






- Altitudine del aeroporto : 220 ft
- Codice IATA : CWL


EGFF - Cardiff Rhoose

ULTIMO METAR :
  • 231620Z 28008KT 9999 FEW045 09/05 Q1021

METARs OBSOLETI :
  • 231550Z 28008KT 9999 FEW045 09/06 Q1021
  • 231520Z 28011KT 9999 FEW030 09/05 Q1020
  • 231450Z 28013KT 9999 FEW025 10/06 Q1020
  • 231420Z 29013KT 9999 FEW025 10/05 Q1020
  • 231350Z AUTO 31020KT 9999 SCT020 BKN026 10/06 Q1019

TAF TAF EGFF
Valido dal 23 a 12 ore il 24 a 12 ore UTC


231102Z 2312/2412 28018G30KT 9999 SCT030
BECMG 2312/2316 27010KT
BECMG 2318/2321 VRB04KT
BECMG 2321/2324 7000 -RA BKN014
TEMPO 2322/2406 RA BKN008
PROB40
TEMPO 2323/2406 3000 RADZ BR BKN003
BECMG 2400/2403 17013KT
BECMG 2403/2406 23018G30KT 9999 NSW SCT020
TEMPO 2406/2412 6000 RA BKN009
TEMPO 2408/2412 25025G40KT
ATIS : +44 1446 729 319



MetMap, La meteo Aeronautica in un colpo d'occhio ! - Copyright ORBIFLY Dicembre 2007 - Disclaimer

ORBIFLY MET'MAP TEAM :

Programmazione e sviluppo : Alexandra Zaïnal
Concezione : Baudouin d'Aumeries
Aiuto per la programmazione : Marc-Olivier Méhu
Supporto tecnico e logistico : Manuel Goepfert
Aiuto per la traduzione : Arnaldo La Scala

Contatto : metmap@orbifly.com




FONTI E CREDITI :

   NOAA